• Join FlightAware (Why Join?)
  • Login
  • US Flag 
06:56AM EDT


 

Airport Tracker/Info


-or-


 

Live Flight TrackerFlight Track Log ✈ SKW2630 ✈ 29-Apr-2013 ✈ KLAX - KFAT

Flight Track Log - Related Links

Times and Time Zones

All times are in EDT time to prevent confusion due to time zone crossing. See the SKW2630 flight status page for this flight to view local times or setup timezone preferences in your user account.

Time Position Orientation Groundspeed Altitude Reporting Facility
EDT Latitude Longitude Course Direction KTS MPH feet Rate Location/Type
11:47AM 33.9325 -118.4531 264° West 182 209 1,800  Level Los Angeles Center
11:48AM 33.9250 -118.5400 264° West 259 298 4,300 2,640 Climbing Los Angeles Center
11:49AM 33.9267 -118.6281 271° West 268 308 7,300 2,220 Climbing Los Angeles Center
11:50AM 33.9931 -118.6914 322° Northwest 283 326 9,000 1,320 Climbing Los Angeles Center
11:51AM 34.0706 -118.6867 North 308 354 10,100 1,680 Climbing Los Angeles Center
11:52AM 34.1481 -118.6381 27° Northeast 307 353 12,500 2,160 Climbing Los Angeles Center
11:53AM 34.2325 -118.6150 13° North 318 366 14,600 1,920 Climbing Los Angeles Center
11:54AM 34.3183 -118.6231 356° North 313 360 16,500 1,500 Climbing Los Angeles Center
11:55AM 34.4083 -118.6456 348° North 331 381 17,800 1,080 Climbing Los Angeles Center
11:56AM 34.5044 -118.6692 349° North 352 405 18,800 1,020 Climbing Los Angeles Center
11:57AM 34.6247 -118.6983 349° North 368 423 20,000 1,020 Climbing Los Angeles Center
11:58AM 34.7258 -118.7258 347° North 374 430 21,000 960 Climbing Los Angeles Center
11:59AM 34.8308 -118.7500 349° North 382 440 22,000 960 Climbing Los Angeles Center
12:00PM 34.9431 -118.7767 349° North 391 450 23,100 960 Climbing Los Angeles Center
12:01PM 35.0506 -118.8042 348° North 396 456 24,000 420 Climbing Los Angeles Center
12:02PM 35.1631 -118.8319 349° North 411 473 24,000  Level Los Angeles Center
12:03PM 35.2811 -118.8603 349° North 428 493 24,000  Level Los Angeles Center
12:04PM 35.4192 -118.8953 348° North 424 488 24,000 -480 Level Los Angeles Center
12:05PM 35.5339 -118.9242 348° North 423 487 23,100 -1,440 Descending Los Angeles Center
12:06PM 35.6483 -118.9547 348° North 423 487 21,100 -2,100 Descending Los Angeles Center
12:07PM 35.7647 -118.9836 349° North 426 490 18,800 -2,340 Descending Los Angeles Center
12:08PM 35.8747 -119.0114 348° North 411 473 16,400 -2,400 Descending Los Angeles Center
12:09PM 35.9978 -119.0617 342° North 389 448 14,000 -1,200 Descending Los Angeles Center
12:10PM 36.0956 -119.1081 339° North 379 436 14,000  Level Los Angeles Center
12:11PM 36.1889 -119.1517 339° North 364 419 14,000 -780 Level Los Angeles Center
12:12PM 36.2833 -119.1983 338° Northwest 366 421 12,500 -1,500 Descending Los Angeles Center
12:13PM 36.3753 -119.2414 339° North 362 417 11,000 -1,380 Descending Los Angeles Center
12:14PM 36.4589 -119.2831 338° Northwest 348 400 9,700 -2,220 Descending Los Angeles Center
12:16PM 36.5442 -119.3258 338° Northwest 312 359 6,500 -2,820 Descending Los Angeles Center
12:17PM 36.5906 -119.3931 311° West 281 323 3,900 -1,800 Descending Los Angeles Center
12:18PM 36.6431 -119.4803 307° West 254 292 2,600 -1,140 Descending Oakland Center